createdAt,value
2022-08-25T00:00:12.681Z,7.60
2022-08-25T00:02:39.787Z,6.80
2022-08-25T00:05:07.863Z,4.78
2022-08-25T00:07:36.507Z,5.97
2022-08-25T00:10:06.504Z,7.50
2022-08-25T00:12:33.925Z,5.15
2022-08-25T00:15:01.031Z,5.90
2022-08-25T00:17:28.227Z,9.10
2022-08-25T00:19:55.767Z,6.25
2022-08-25T00:22:23.366Z,5.68
2022-08-25T00:24:50.357Z,4.55
2022-08-25T00:27:18.780Z,6.30
2022-08-25T00:29:45.836Z,8.30
2022-08-25T00:32:13.410Z,7.85
2022-08-25T00:34:40.754Z,6.30
2022-08-25T00:37:09.470Z,7.65
2022-08-25T00:39:38.627Z,9.05
2022-08-25T00:42:15.837Z,7.05
2022-08-25T00:44:47.791Z,5.88
2022-08-25T00:47:15.859Z,7.63
2022-08-25T00:49:47.993Z,5.93
2022-08-25T00:52:31.632Z,6.22
2022-08-25T00:55:09.144Z,7.25
2022-08-25T00:57:58.252Z,6.05
2022-08-25T01:00:31.346Z,7.32
2022-08-25T01:02:59.563Z,4.57
2022-08-25T01:05:28.337Z,8.63
2022-08-25T01:07:58.521Z,7.00
2022-08-25T01:10:27.267Z,9.35
2022-08-25T01:13:01.327Z,4.28
2022-08-25T01:15:28.828Z,5.10
2022-08-25T01:17:57.640Z,6.28
2022-08-25T01:20:30.077Z,8.38
2022-08-25T01:22:59.542Z,4.70
2022-08-25T01:25:47.979Z,4.88
2022-08-25T01:28:15.657Z,8.20
2022-08-25T01:30:43.158Z,5.88
2022-08-25T01:33:12.375Z,8.00
2022-08-25T01:35:40.656Z,4.97
2022-08-25T01:38:09.179Z,5.93
2022-08-25T01:40:38.017Z,10.05
2022-08-25T01:43:18.313Z,7.68
2022-08-25T01:45:48.489Z,10.77
2022-08-25T01:48:16.558Z,6.82
2022-08-25T01:50:44.270Z,8.25
2022-08-25T01:53:26.442Z,5.85
2022-08-25T01:58:26.970Z,9.07
2022-08-25T02:00:57.611Z,4.75
2022-08-25T02:03:25.779Z,7.07
2022-08-25T02:05:53.998Z,5.05
2022-08-25T02:08:22.348Z,4.93
2022-08-25T02:10:50.296Z,5.07
2022-08-25T02:13:18.257Z,9.65
2022-08-25T02:15:49.801Z,6.70
2022-08-25T02:18:17.308Z,8.20
2022-08-25T02:20:44.843Z,7.47
2022-08-25T02:23:12.373Z,11.82
2022-08-25T02:25:41.542Z,8.60
2022-08-25T02:28:09.891Z,7.50
2022-08-25T02:30:38.716Z,10.70
2022-08-25T02:33:06.526Z,6.60
2022-08-25T02:35:33.939Z,8.65
2022-08-25T02:38:01.272Z,7.20
2022-08-25T02:40:28.519Z,5.05
2022-08-25T02:42:56.276Z,6.65
2022-08-25T02:45:23.489Z,4.65
2022-08-25T02:47:50.412Z,4.68
2022-08-25T02:50:17.709Z,7.05
2022-08-25T02:52:45.457Z,6.18
2022-08-25T02:55:14.378Z,4.95
2022-08-25T02:57:42.234Z,5.00
2022-08-25T03:00:12.651Z,4.88
2022-08-25T03:02:41.562Z,6.35
2022-08-25T03:05:10.311Z,10.40
2022-08-25T03:07:38.803Z,6.15
2022-08-25T03:10:13.863Z,8.43
2022-08-25T03:12:41.823Z,6.38
2022-08-25T03:15:12.896Z,4.95
2022-08-25T03:17:45.564Z,10.40
2022-08-25T03:20:13.526Z,6.22
2022-08-25T03:22:40.838Z,6.65
2022-08-25T03:25:27.339Z,7.25
2022-08-25T03:27:54.455Z,4.70
2022-08-25T03:30:22.102Z,7.90
2022-08-25T03:32:49.432Z,5.47
2022-08-25T03:35:16.551Z,6.85
2022-08-25T03:37:44.101Z,6.70
2022-08-25T03:40:15.487Z,6.57
2022-08-25T03:42:46.000Z,6.82
2022-08-25T03:45:14.544Z,12.70
2022-08-25T03:47:42.716Z,10.32
2022-08-25T03:50:11.618Z,8.88
2022-08-25T03:52:42.408Z,8.18
2022-08-25T03:55:13.639Z,9.45
2022-08-25T03:57:40.658Z,7.05
2022-08-25T04:00:09.663Z,8.15
2022-08-25T04:02:40.017Z,7.40
2022-08-25T04:05:08.181Z,7.57
2022-08-25T04:07:37.193Z,6.82
2022-08-25T04:10:06.635Z,7.50
2022-08-25T04:12:35.407Z,6.88
2022-08-25T04:15:04.825Z,5.78
2022-08-25T04:17:32.429Z,10.15
2022-08-25T04:19:59.847Z,8.73
2022-08-25T04:22:27.624Z,6.70
2022-08-25T04:24:58.413Z,8.35
2022-08-25T04:27:25.698Z,12.05
2022-08-25T04:29:52.864Z,6.68
2022-08-25T04:32:20.877Z,5.72
2022-08-25T04:34:49.155Z,10.32
2022-08-25T04:37:17.050Z,6.60
2022-08-25T04:39:44.130Z,5.22
2022-08-25T04:42:11.497Z,7.60
2022-08-25T04:44:39.248Z,9.35
2022-08-25T04:47:06.377Z,7.07
2022-08-25T04:49:33.497Z,6.97
2022-08-25T04:52:00.664Z,7.82
2022-08-25T04:54:28.306Z,6.50
2022-08-25T04:56:57.957Z,7.05
2022-08-25T04:59:27.359Z,6.57
2022-08-25T05:02:02.060Z,5.88
2022-08-25T05:04:29.349Z,7.85
2022-08-25T05:06:57.601Z,8.90
2022-08-25T05:09:25.664Z,5.07
2022-08-25T05:11:53.478Z,5.38
2022-08-25T05:14:25.544Z,11.10
2022-08-25T05:16:55.066Z,11.02
2022-08-25T05:19:23.921Z,7.68
2022-08-25T05:21:51.486Z,11.10
2022-08-25T05:24:18.975Z,14.90
2022-08-25T05:26:46.148Z,10.70
2022-08-25T05:29:14.440Z,9.50
2022-08-25T05:31:47.001Z,9.15
2022-08-25T05:34:15.687Z,9.85
2022-08-25T05:36:43.635Z,13.15
2022-08-25T05:39:11.560Z,8.60
2022-08-25T05:41:40.849Z,8.18
2022-08-25T05:44:08.878Z,12.77
2022-08-25T05:46:36.964Z,11.52
2022-08-25T05:49:04.273Z,9.57
2022-08-25T05:51:31.338Z,8.95
2022-08-25T05:53:58.564Z,11.77
2022-08-25T05:56:25.804Z,7.00
2022-08-25T05:58:52.887Z,8.13
2022-08-25T06:01:47.519Z,7.68
2022-08-25T06:04:19.008Z,13.63
2022-08-25T06:06:46.138Z,12.07
2022-08-25T06:09:13.457Z,10.00
2022-08-25T06:11:41.471Z,10.25
2022-08-25T06:14:10.522Z,10.50
2022-08-25T06:16:39.306Z,11.27
2022-08-25T06:19:07.391Z,11.90
2022-08-25T06:21:35.269Z,14.13
2022-08-25T06:24:02.479Z,10.10
2022-08-25T06:26:29.537Z,16.98
2022-08-25T06:28:56.916Z,16.77
2022-08-25T06:31:24.359Z,8.75
2022-08-25T06:33:53.884Z,17.58
2022-08-25T06:36:21.300Z,14.43
2022-08-25T06:38:48.713Z,7.85
2022-08-25T06:41:16.864Z,11.68
2022-08-25T06:43:48.972Z,10.30
2022-08-25T06:46:23.088Z,10.68
2022-08-25T06:49:03.133Z,13.05
2022-08-25T06:51:30.337Z,6.07
2022-08-25T06:53:57.512Z,6.63
2022-08-25T06:56:24.806Z,6.47
2022-08-25T06:58:53.864Z,9.23
2022-08-25T07:01:27.753Z,5.97
2022-08-25T07:03:57.589Z,11.52
2022-08-25T07:06:26.633Z,5.03
2022-08-25T07:08:54.715Z,7.97
2022-08-25T07:11:21.900Z,7.97
2022-08-25T07:13:49.495Z,5.90
2022-08-25T07:16:18.081Z,4.35
2022-08-25T07:18:46.059Z,7.00
2022-08-25T07:21:14.310Z,7.43
2022-08-25T07:23:42.112Z,8.38
2022-08-25T07:26:33.705Z,5.63
2022-08-25T07:29:00.054Z,6.57
2022-08-25T07:31:29.726Z,5.28
2022-08-25T07:34:16.696Z,2.92
2022-08-25T07:36:44.640Z,6.72
2022-08-25T07:39:12.574Z,3.33
2022-08-25T07:41:41.667Z,6.63
2022-08-25T07:44:11.070Z,4.88
2022-08-25T07:46:38.560Z,2.25
2022-08-25T07:49:16.479Z,4.15
2022-08-25T07:52:03.930Z,6.38
2022-08-25T07:54:34.519Z,3.85
2022-08-25T07:57:03.850Z,4.28
2022-08-25T07:59:38.936Z,5.60
2022-08-25T08:02:17.676Z,7.25
2022-08-25T08:04:49.497Z,3.38
2022-08-25T08:07:22.892Z,3.70
2022-08-25T08:10:00.453Z,4.75
2022-08-25T08:12:38.669Z,3.85
2022-08-25T08:15:10.409Z,5.45
2022-08-25T08:17:38.994Z,4.85
2022-08-25T08:20:09.094Z,4.90
2022-08-25T08:22:38.104Z,3.38
2022-08-25T08:25:10.611Z,5.35
2022-08-25T08:27:42.976Z,4.53
2022-08-25T08:30:11.814Z,3.92
2022-08-25T08:33:05.890Z,3.90
2022-08-25T08:35:27.055Z,4.97
2022-08-25T08:37:54.183Z,3.67
2022-08-25T08:40:21.686Z,6.22
2022-08-25T08:43:06.387Z,4.18
2022-08-25T08:45:44.127Z,8.93
2022-08-25T08:48:36.106Z,5.32
2022-08-25T08:51:25.282Z,4.13
2022-08-25T08:54:16.677Z,4.10
2022-08-25T08:56:49.494Z,5.60
2022-08-25T08:59:19.706Z,4.55
2022-08-25T09:02:02.301Z,2.55
2022-08-25T09:04:49.014Z,2.00
2022-08-25T09:07:29.905Z,4.72
2022-08-25T09:09:59.915Z,6.30
2022-08-25T09:12:38.165Z,5.22
2022-08-25T09:15:55.448Z,3.75
2022-08-25T09:18:52.573Z,3.35
2022-08-25T09:21:43.803Z,2.28
2022-08-25T09:24:32.848Z,4.30
2022-08-25T09:27:25.357Z,7.97
2022-08-25T09:30:15.353Z,2.38
2022-08-25T09:32:52.283Z,7.15
2022-08-25T09:35:34.317Z,7.30
2022-08-25T09:38:10.694Z,2.20
2022-08-25T09:40:45.430Z,3.33
2022-08-25T09:43:29.972Z,5.03
2022-08-25T09:46:05.946Z,3.15
2022-08-25T09:48:42.318Z,2.80
2022-08-25T09:51:43.073Z,3.42
2022-08-25T09:54:13.936Z,4.28
2022-08-25T09:57:08.675Z,6.43
2022-08-25T09:59:38.129Z,4.18
2022-08-25T10:02:33.099Z,2.13
2022-08-25T10:05:17.496Z,3.80
2022-08-25T10:07:59.336Z,1.20
2022-08-25T10:10:32.332Z,1.98
2022-08-25T10:13:01.791Z,3.85
2022-08-25T10:15:38.143Z,3.45
2022-08-25T10:18:37.619Z,1.95
2022-08-25T10:21:10.062Z,2.88
2022-08-25T10:23:52.596Z,3.10
2022-08-25T10:26:37.177Z,4.53
2022-08-25T10:30:02.912Z,3.20
2022-08-25T10:33:07.896Z,1.70
2022-08-25T10:35:53.219Z,3.30
2022-08-25T10:38:51.877Z,5.07
2022-08-25T10:41:45.978Z,7.18
2022-08-25T10:44:58.588Z,3.15
2022-08-25T10:47:44.709Z,3.92
2022-08-25T10:50:37.513Z,4.30
2022-08-25T10:53:27.506Z,1.73
2022-08-25T10:56:13.210Z,2.53
2022-08-25T10:59:13.495Z,1.35
2022-08-25T11:01:46.463Z,6.28
2022-08-25T11:04:29.947Z,1.77
2022-08-25T11:07:08.425Z,3.40
2022-08-25T11:09:41.839Z,7.75
2022-08-25T11:12:46.124Z,4.53
2022-08-25T11:15:20.344Z,2.00
2022-08-25T11:17:51.411Z,7.28
2022-08-25T11:20:26.862Z,5.45
2022-08-25T11:23:17.414Z,2.08
2022-08-25T11:25:50.962Z,4.88
2022-08-25T11:28:36.085Z,4.65
2022-08-25T11:31:04.385Z,3.67
2022-08-25T11:33:33.711Z,2.03
2022-08-25T11:36:06.965Z,4.43
2022-08-25T11:39:04.199Z,3.67
2022-08-25T11:41:49.952Z,3.40
2022-08-25T11:45:00.578Z,2.88
2022-08-25T11:47:39.544Z,12.85
2022-08-25T11:50:24.119Z,3.78
2022-08-25T11:53:01.797Z,5.38
2022-08-25T11:55:37.464Z,5.13
2022-08-25T11:58:30.704Z,4.65
2022-08-25T12:01:01.040Z,2.50
2022-08-25T12:03:37.342Z,4.75
2022-08-25T12:06:26.385Z,3.05
2022-08-25T12:09:17.809Z,5.07
2022-08-25T12:11:49.241Z,2.20
2022-08-25T12:14:22.031Z,5.45
2022-08-25T12:16:52.690Z,2.58
2022-08-25T12:19:34.691Z,4.97
2022-08-25T12:22:03.248Z,11.15
2022-08-25T12:24:47.296Z,4.03
2022-08-25T12:27:59.429Z,6.30
2022-08-25T12:30:30.987Z,11.98
2022-08-25T12:33:03.815Z,4.30
2022-08-25T12:35:37.412Z,6.60
2022-08-25T12:38:14.119Z,6.00
2022-08-25T12:40:46.255Z,2.05
2022-08-25T12:43:28.123Z,3.10
2022-08-25T12:46:30.506Z,11.30
2022-08-25T12:49:00.339Z,2.15
2022-08-25T12:51:28.326Z,4.53
2022-08-25T12:54:22.492Z,6.18
2022-08-25T12:57:03.198Z,6.00
2022-08-25T12:59:45.811Z,6.13
2022-08-25T13:02:57.959Z,5.03
2022-08-25T13:05:58.416Z,5.65
2022-08-25T13:08:37.153Z,2.38
2022-08-25T13:11:23.716Z,3.88
2022-08-25T13:14:26.998Z,2.20
2022-08-25T13:16:56.168Z,6.10
2022-08-25T13:19:25.530Z,2.05
2022-08-25T13:21:54.631Z,7.43
2022-08-25T13:24:24.201Z,6.90
2022-08-25T13:26:55.676Z,5.57
2022-08-25T13:29:35.084Z,12.70
2022-08-25T13:32:14.438Z,6.32
2022-08-25T13:34:43.827Z,8.07
2022-08-25T13:37:32.631Z,3.03
2022-08-25T13:40:26.394Z,3.55
2022-08-25T13:42:58.819Z,3.42
2022-08-25T13:45:31.701Z,5.32
2022-08-25T13:47:59.651Z,2.60
2022-08-25T13:50:27.027Z,5.78
2022-08-25T13:53:08.687Z,2.85
2022-08-25T13:56:00.554Z,3.55
2022-08-25T13:58:39.472Z,7.22
2022-08-25T14:01:47.841Z,2.42
2022-08-25T14:04:24.260Z,3.05
2022-08-25T14:07:22.387Z,3.60
2022-08-25T14:09:57.199Z,3.33
2022-08-25T14:12:44.926Z,4.38
2022-08-25T14:15:31.987Z,6.25
2022-08-25T14:18:08.029Z,6.72
2022-08-25T14:20:37.215Z,3.28
2022-08-25T14:23:09.870Z,4.57
2022-08-25T14:25:40.493Z,3.17
2022-08-25T14:28:18.888Z,2.30
2022-08-25T14:30:58.887Z,6.95
2022-08-25T14:33:32.767Z,4.05
2022-08-25T14:36:02.637Z,4.32
2022-08-25T14:38:29.528Z,3.90
2022-08-25T14:40:59.231Z,2.65
2022-08-25T14:43:31.491Z,3.00
2022-08-25T14:46:03.222Z,5.32
2022-08-25T14:48:35.667Z,3.45
2022-08-25T14:51:04.682Z,3.80
2022-08-25T14:53:32.461Z,2.47
2022-08-25T14:56:01.406Z,1.75
2022-08-25T14:58:35.984Z,6.45
2022-08-25T15:01:17.635Z,2.72
2022-08-25T15:04:08.090Z,2.75
2022-08-25T15:06:36.978Z,4.43
2022-08-25T15:09:07.916Z,4.60
2022-08-25T15:11:38.798Z,2.47
2022-08-25T15:14:11.059Z,2.00
2022-08-25T15:16:49.314Z,4.47
2022-08-25T15:19:19.385Z,4.55
2022-08-25T15:21:47.800Z,3.08
2022-08-25T15:24:17.367Z,2.45
2022-08-25T15:29:20.825Z,4.68
2022-08-25T15:31:48.028Z,5.43
2022-08-25T15:34:15.756Z,4.20
2022-08-25T15:36:43.304Z,5.32
2022-08-25T15:39:10.935Z,1.77
2022-08-25T15:41:38.425Z,5.18
2022-08-25T15:44:07.923Z,2.90
2022-08-25T15:46:36.242Z,7.22
2022-08-25T15:49:03.671Z,1.98
2022-08-25T15:51:31.273Z,3.40
2022-08-25T15:53:58.968Z,2.40
2022-08-25T15:56:27.200Z,4.53
2022-08-25T15:58:55.614Z,4.18
2022-08-25T16:01:28.059Z,4.13
2022-08-25T16:03:57.783Z,5.07
2022-08-25T16:06:26.828Z,4.05
2022-08-25T16:08:54.068Z,4.97
2022-08-25T16:11:26.569Z,2.13
2022-08-25T16:13:56.042Z,2.08
2022-08-25T16:16:25.722Z,3.15
2022-08-25T16:18:53.668Z,2.47
2022-08-25T16:21:25.616Z,2.80
2022-08-25T16:24:01.912Z,6.10
2022-08-25T16:26:31.733Z,3.45
2022-08-25T16:28:58.913Z,5.22
2022-08-25T16:31:26.466Z,2.15
2022-08-25T16:33:56.160Z,2.42
2022-08-25T16:36:28.440Z,2.83
2022-08-25T16:38:57.596Z,4.88
2022-08-25T16:41:27.202Z,4.28
2022-08-25T16:43:54.577Z,4.50
2022-08-25T16:46:23.798Z,4.38
2022-08-25T16:48:51.263Z,2.72
2022-08-25T16:51:22.756Z,4.32
2022-08-25T16:54:11.476Z,1.52
2022-08-25T16:56:42.385Z,2.33
2022-08-25T16:59:12.238Z,2.90
2022-08-25T17:01:42.031Z,4.50
2022-08-25T17:04:10.480Z,2.15
2022-08-25T17:06:49.560Z,2.67
2022-08-25T17:09:23.013Z,4.85
2022-08-25T17:11:54.373Z,5.03
2022-08-25T17:14:22.340Z,3.40
2022-08-25T17:16:51.330Z,2.30
2022-08-25T17:19:18.886Z,2.60
2022-08-25T17:21:47.082Z,4.28
2022-08-25T17:24:17.852Z,4.35
2022-08-25T17:26:49.766Z,7.10
2022-08-25T17:29:18.725Z,2.40
2022-08-25T17:31:48.453Z,5.18
2022-08-25T17:34:21.381Z,5.60
2022-08-25T17:36:54.032Z,6.80
2022-08-25T17:39:23.167Z,11.38
2022-08-25T17:41:51.508Z,7.88
2022-08-25T17:44:19.414Z,8.43
2022-08-25T17:46:47.970Z,6.07
2022-08-25T17:49:17.279Z,11.45
2022-08-25T18:29:56.218Z,8.38
2022-08-25T18:32:25.971Z,15.93
2022-08-25T18:34:56.822Z,6.88
2022-08-25T18:37:43.302Z,18.48
2022-08-25T18:40:23.068Z,11.65
2022-08-25T18:42:54.567Z,8.00
2022-08-25T18:45:25.718Z,8.52
2022-08-25T18:47:56.414Z,10.27
2022-08-25T18:50:26.209Z,9.35
2022-08-25T18:52:55.112Z,10.90
2022-08-25T18:55:23.091Z,10.70
2022-08-25T18:57:51.634Z,9.60
2022-08-25T19:00:23.044Z,15.98
2022-08-25T19:02:53.891Z,9.00
2022-08-25T19:05:24.723Z,13.15
2022-08-25T19:07:52.363Z,8.50
2022-08-25T19:10:20.961Z,13.20
2022-08-25T19:12:52.083Z,11.13
2022-08-25T19:15:19.226Z,12.70
2022-08-25T19:17:54.610Z,13.45
2022-08-25T19:20:23.060Z,11.15
2022-08-25T19:22:50.950Z,11.77
2022-08-25T19:25:20.539Z,12.65
2022-08-25T19:27:49.445Z,10.77
2022-08-25T19:30:19.160Z,13.05
2022-08-25T19:32:47.958Z,15.70
2022-08-25T19:35:22.510Z,15.15
2022-08-25T19:37:52.288Z,17.25
2022-08-25T19:40:21.359Z,16.98
2022-08-25T19:42:53.825Z,27.65
2022-08-25T19:45:24.005Z,24.27
2022-08-25T19:47:51.846Z,33.00
2022-08-25T19:50:21.377Z,31.58
2022-08-25T19:52:49.937Z,31.65
2022-08-25T19:55:17.689Z,33.88
2022-08-25T19:57:45.014Z,34.20
2022-08-25T20:00:17.404Z,29.92
2022-08-25T20:02:45.958Z,34.47
2022-08-25T20:05:14.696Z,35.50
2022-08-25T20:07:42.997Z,41.28
2022-08-25T20:10:14.147Z,37.60
2022-08-25T20:12:44.677Z,42.03
2022-08-25T20:15:14.234Z,44.03
2022-08-25T20:17:45.090Z,43.57
2022-08-25T20:20:15.752Z,48.13
2022-08-25T20:22:42.890Z,54.80
2022-08-25T20:25:14.142Z,51.42
2022-08-25T20:27:44.481Z,52.00
2022-08-25T20:30:25.374Z,48.95
2022-08-25T20:32:55.337Z,50.47
2022-08-25T20:35:26.793Z,44.00
2022-08-25T20:37:55.975Z,44.03
2022-08-25T20:40:25.450Z,44.85
2022-08-25T20:42:53.020Z,44.60
2022-08-25T20:45:22.749Z,45.33
2022-08-25T20:47:50.341Z,38.83
2022-08-25T20:50:18.494Z,45.33
2022-08-25T20:52:45.841Z,44.90
2022-08-25T20:55:15.382Z,36.05
2022-08-25T20:57:48.685Z,37.33
2022-08-25T21:00:16.623Z,31.63
2022-08-25T21:02:46.285Z,34.38
2022-08-25T21:05:13.545Z,29.70
2022-08-25T21:07:41.696Z,26.10
2022-08-25T21:10:14.409Z,32.25
2022-08-25T21:12:45.061Z,33.60
2022-08-25T21:15:18.062Z,29.40
2022-08-25T21:17:50.928Z,35.42
2022-08-25T21:20:18.451Z,30.27
2022-08-25T21:22:45.359Z,34.55
2022-08-25T21:25:13.326Z,32.28
2022-08-25T21:27:40.830Z,29.35
2022-08-25T21:30:11.534Z,30.88
2022-08-25T21:32:38.617Z,25.27
2022-08-25T21:35:07.935Z,31.00
2022-08-25T21:37:35.347Z,30.90
2022-08-25T21:40:02.398Z,23.15
2022-08-25T21:42:34.866Z,27.55
2022-08-25T21:45:02.719Z,33.33
2022-08-25T21:47:29.847Z,27.33
2022-08-25T21:49:57.126Z,26.60
2022-08-25T21:52:24.774Z,23.58
2022-08-25T21:54:52.053Z,23.80
2022-08-25T21:57:23.833Z,24.75
2022-08-25T21:59:51.777Z,22.30
2022-08-25T22:02:22.573Z,19.52
2022-08-25T22:04:53.809Z,22.45
2022-08-25T22:07:24.681Z,22.58
2022-08-25T22:09:52.368Z,21.97
2022-08-25T22:12:20.147Z,21.77
2022-08-25T22:14:47.140Z,21.98
2022-08-25T22:17:16.721Z,18.48
2022-08-25T22:19:45.998Z,18.63
2022-08-25T22:22:13.410Z,18.77
2022-08-25T22:24:40.686Z,21.65
2022-08-25T22:27:15.488Z,23.58
2022-08-25T22:29:44.498Z,17.10
2022-08-25T22:32:13.746Z,19.42
2022-08-25T22:34:43.715Z,19.38
2022-08-25T22:37:10.794Z,16.40
2022-08-25T22:39:38.511Z,20.60
2022-08-25T22:42:07.964Z,23.80
2022-08-25T22:44:38.754Z,15.90
2022-08-25T22:49:35.506Z,18.30
2022-08-25T22:52:03.321Z,17.73
2022-08-25T22:54:30.634Z,16.60
2022-08-25T22:57:04.582Z,20.52
2022-08-25T22:59:33.466Z,17.52
2022-08-25T23:02:00.868Z,18.73
2022-08-25T23:04:27.918Z,15.30
2022-08-25T23:06:54.925Z,16.10
2022-08-25T23:09:22.261Z,14.48
2022-08-25T23:11:52.143Z,14.43
2022-08-25T23:14:20.086Z,20.35
2022-08-25T23:16:49.882Z,20.15
2022-08-25T23:19:20.901Z,17.75
2022-08-25T23:22:08.384Z,17.92
2022-08-25T23:24:43.004Z,16.73
2022-08-25T23:27:13.791Z,21.05
2022-08-25T23:29:43.938Z,19.52
2022-08-25T23:32:14.383Z,19.75
2022-08-25T23:34:43.059Z,18.67
2022-08-25T23:37:15.178Z,17.08
2022-08-25T23:39:47.567Z,14.60
2022-08-25T23:42:20.504Z,18.92
2022-08-25T23:44:49.296Z,15.45
2022-08-25T23:47:20.850Z,18.60
2022-08-25T23:49:48.310Z,19.85
2022-08-25T23:52:17.777Z,20.70
2022-08-25T23:54:47.558Z,18.15
2022-08-25T23:57:15.006Z,17.40
2022-08-25T23:59:43.277Z,19.15
